Latest Weather Observations for Rabbit Flat

IDD60801

Issued at 5:11 pm CST Friday 3 December 2021 (issued every 10 minutes, with the page automatically refreshed every 10 minutes)

About weather observations | Map of weather stations | Latest weather observations for NT | Other Formats
Station Details ID: 015666 Name: RABBIT FLAT Lat: -20.18 Lon: 130.01 Height: 340.0 m
Data from the previous 72 hours. | See also: Recent months at Rabbit Flat
Date/Time
CST
Temp
°C
App
Temp
°C
Dew
Point
°C
Rel
Hum
%
Delta-T
°C
Wind Press
QNH
hPa
Press
MSL
hPa
Rain since
9am
mm
Dir  Spd
km/h
Gust
km/h
Spd
kts
Gust
kts
03/05:00pm 40.7 34.7 -6.3 5 22.2 ENE 17 35 9 19 1008.4 1005.6 0.0
03/04:30pm 41.2 35.0 -8.8 4 22.9 E 17 30 9 16 1008.4 1005.6 0.0
03/04:00pm 41.3 35.0 -5.8 5 22.5 ENE 19 35 10 19 1008.9 1006.1 0.0
03/03:30pm 41.5 35.3 -8.6 4 23.0 E 17 30 9 16 1009.0 1006.3 0.0
03/03:00pm 41.5 36.3 -5.7 5 22.6 E 13 26 7 14 1009.3 1006.6 0.0
03/02:30pm 41.7 34.9 -5.6 5 22.7 ENE 22 37 12 20 1009.7 1007.0 0.0
03/02:00pm 41.2 33.9 -5.9 5 22.4 NE 24 43 13 23 1010.1 1007.3 0.0
03/01:30pm 41.9 36.4 -5.4 5 22.8 ENE 15 28 8 15 1010.5 1007.7 0.0
03/01:00pm 41.7 35.0 -8.5 4 23.1 NE 20 32 11 17 1010.9 1008.1 0.0
03/12:30pm 41.1 33.5 -6.0 5 22.4 ENE 26 43 14 23 1011.4 1008.6 0.0
03/12:00pm 40.8 33.6 -9.1 4 22.6 ENE 22 32 12 17 1011.7 1009.0 0.0
03/11:30am 41.0 33.5 -8.9 4 22.7 ENE 24 37 13 20 1012.0 1009.3 0.0
03/11:00am 39.9 33.1 -9.7 4 22.1 ENE 20 35 11 19 1012.4 1009.7 0.0
03/10:30am 40.2 33.4 -9.5 4 22.3 E 20 33 11 18 1012.5 1009.8 0.0
03/10:00am 39.4 32.8 -7.2 5 21.5 ENE 20 30 11 16 1012.6 1009.9 0.0
03/09:30am 38.3 32.0 -5.5 6 20.6 ENE 19 28 10 15 1012.6 1009.9 0.0
03/09:00am 36.6 31.0 -3.0 8 19.1 ENE 17 24 9 13 1012.5 1009.8 0.0
03/08:30am 34.6 29.6 -1.4 10 17.6 ENE 15 20 8 11 1012.4 1009.7 0.0
03/08:00am 32.4 27.9 -0.6 12 16.1 ENE 13 20 7 11 1012.2 1009.5 0.0
03/07:30am 28.1 25.5 3.0 20 12.7 ENE 6 9 3 5 1012.1 1009.4 0.0
03/07:00am 23.4 21.0 5.3 31 9.2 ESE 7 9 4 5 1011.7 1009.0 0.0
03/06:30am 19.9 18.0 7.6 45 6.4 SE 7 11 4 6 1011.4 1008.6 0.0
03/06:00am 17.8 15.5 5.7 45 6.0 WNW 7 9 4 5 1010.5 1007.7 0.0
03/05:30am 18.0 15.3 5.6 44 6.2 WNW 9 11 5 6 1010.1 1007.3 0.0
03/05:00am 18.3 15.6 5.8 44 6.2 WNW 9 9 5 5 1009.6 1006.9 0.0
03/04:30am 18.7 17.6 5.2 41 6.7 CALM 0 0 0 0 1009.5 1006.8 0.0
03/04:00am 19.1 17.9 4.8 39 7.0 CALM 0 0 0 0 1009.5 1006.8 0.0
03/03:30am 19.5 18.3 4.4 37 7.4 CALM 0 0 0 0 1009.5 1006.8 0.0
03/03:00am 20.3 17.8 3.9 34 8.0 WNW 6 7 3 4 1009.7 1007.0 0.0
03/02:30am 20.4 19.0 3.6 33 8.2 CALM 0 0 0 0 1010.0 1007.2 0.0
03/02:00am 21.5 20.0 3.2 30 8.9 CALM 0 0 0 0 1010.2 1007.4 0.0
03/01:30am 22.1 20.5 2.2 27 9.5 CALM 0 4 0 2 1010.6 1007.8 0.0
03/01:00am 22.6 19.7 1.6 25 9.9 NE 6 9 3 5 1010.7 1007.9 0.0
03/12:30am 24.3 22.4 0.6 21 11.2 CALM 0 0 0 0 1010.9 1008.1 0.0
03/12:00am 27.2 23.4 -0.8 16 13.1 ENE 9 11 5 6 1011.3 1008.5 0.0
 
Date/Time
CST
Temp
°C
App
Temp
°C
Dew
Point
°C
Rel
Hum
%
Delta-T
°C
Wind Press
QNH
hPa
Press
MSL
hPa
Rain since
9am
mm
Dir  Spd
km/h
Gust
km/h
Spd
kts
Gust
kts
02/11:30pm 28.4 23.8 -0.7 15 13.8 ENE 13 15 7 8 1011.5 1008.7 0.0
02/11:00pm 29.2 25.0 -1.0 14 14.3 ENE 11 15 6 8 1011.6 1008.9 0.0
02/10:30pm 29.7 24.8 -0.6 14 14.5 ENE 15 20 8 11 1011.6 1008.9 0.0
02/10:00pm 30.0 25.7 -1.4 13 14.9 ENE 11 15 6 8 1011.4 1008.6 0.0
02/09:30pm 31.3 26.6 -1.5 12 15.7 ENE 13 17 7 9 1011.0 1008.2 0.0
02/09:00pm 31.9 27.3 -1.0 12 15.9 E 13 17 7 9 1010.6 1007.8 0.0
02/08:30pm 32.8 28.1 -1.5 11 16.6 E 13 15 7 8 1010.2 1007.4 0.0
02/08:00pm 34.1 29.4 -1.8 10 17.4 E 13 15 7 8 1009.6 1006.9 0.0
02/07:30pm 35.8 31.3 -3.5 8 18.8 E 11 15 6 8 1009.3 1006.6 0.0
02/07:00pm 38.1 33.5 -3.7 7 20.2 E 11 15 6 8 1008.8 1006.0 0.0
02/06:30pm 40.0 34.6 -4.3 6 21.5 E 15 20 8 11 1008.5 1005.7 0.0
02/06:00pm 40.4 34.3 -4.1 6 21.7 E 19 26 10 14 1008.2 1005.4 0.0
02/05:30pm 40.3 34.7 -6.5 5 22.0 ENE 15 30 8 16 1008.0 1005.2 0.0
02/05:00pm 40.6 35.0 -6.3 5 22.1 ENE 15 26 8 14 1007.9 1005.1 0.0
02/04:30pm 41.6 34.4 -5.6 5 22.7 ESE 24 37 13 20 1008.1 1005.3 0.0
02/04:00pm 41.9 35.1 -5.4 5 22.8 E 22 35 12 19 1008.2 1005.4 0.0
02/03:30pm 42.3 36.5 -5.1 5 23.1 ESE 17 32 9 17 1008.4 1005.6 0.0
02/03:00pm 41.8 36.3 -5.5 5 22.8 ENE 15 28 8 15 1008.8 1006.0 0.0
02/02:30pm 41.5 34.3 -5.7 5 22.6 E 24 37 13 20 1009.2 1006.5 0.0
02/02:00pm 41.1 34.6 -6.0 5 22.4 ESE 20 37 11 20 1009.4 1006.7 0.0
02/01:30pm 41.2 34.7 -5.9 5 22.5 E 20 33 11 18 1010.1 1007.3 0.0
02/01:00pm 41.7 36.6 -5.6 5 22.7 ENE 13 28 7 15 1010.4 1007.6 0.0
02/12:30pm 41.4 35.5 -5.8 5 22.6 ENE 17 37 9 20 1010.7 1007.9 0.0
02/12:00pm 40.9 34.3 -3.7 6 21.9 NNE 22 44 12 24 1010.8 1008.0 0.0
02/11:30am 40.7 33.7 -3.9 6 21.8 ENE 24 39 13 21 1011.2 1008.4 0.0
02/11:00am 40.2 33.1 -4.2 6 21.6 NE 24 35 13 19 1011.4 1008.6 0.0
02/10:30am 40.4 33.7 -4.1 6 21.7 NE 22 39 12 21 1011.5 1008.7 0.0
02/10:00am 39.3 32.8 -2.8 7 20.8 NE 22 35 12 19 1011.5 1008.7 0.0
02/09:30am 38.5 32.5 -1.6 8 20.1 ENE 20 26 11 14 1011.7 1009.0 0.0
02/09:00am 37.1 31.7 -1.0 9 19.1 ENE 17 24 9 13 1011.9 1009.2 0.0
02/08:30am 35.4 31.8 0.5 11 17.7 NE 9 15 5 8 1011.8 1009.1 0.0
02/08:00am 32.4 28.6 1.5 14 15.6 NNE 11 17 6 9 1011.6 1008.9 0.0
02/07:30am 27.9 25.2 3.6 21 12.4 N 7 9 4 5 1011.5 1008.7 0.0
02/07:00am 24.1 21.7 4.5 28 9.9 NW 6 7 3 4 1011.2 1008.4 0.0
02/06:30am 21.3 18.7 4.4 33 8.4 NNW 7 11 4 6 1010.9 1008.1 0.0
02/06:00am 20.6 17.4 2.9 31 8.5 NW 9 9 5 5 1010.6 1007.8 0.0
02/05:30am 21.2 18.4 3.4 31 8.7 NW 7 15 4 8 1010.1 1007.3 0.0
02/05:00am 20.5 17.9 4.1 34 8.0 NW 7 15 4 8 1009.5 1006.8 0.0
02/04:30am 21.4 18.9 3.6 31 8.7 ENE 6 7 3 4 1009.3 1006.6 0.0
02/04:00am 23.1 20.3 3.1 27 9.8 ENE 7 9 4 5 1009.1 1006.4 0.0
02/03:30am 24.3 20.9 1.9 23 10.8 ENE 9 11 5 6 1009.0 1006.3 0.0
02/03:00am 24.1 20.8 2.3 24 10.6 ENE 9 13 5 7 1009.1 1006.4 0.0
02/02:30am 25.4 21.3 2.2 22 11.4 ENE 13 17 7 9 1009.2 1006.5 0.0
02/02:00am 25.8 21.9 1.2 20 11.8 E 11 13 6 7 1009.4 1006.7 0.0
02/01:30am 27.7 22.6 0.5 17 13.1 E 17 22 9 12 1009.5 1006.8 0.0
02/01:00am 27.3 21.7 0.1 17 13.0 E 19 22 10 12 1009.7 1007.0 0.0
02/12:30am 27.2 22.8 0.1 17 12.9 ENE 13 17 7 9 1010.3 1007.5 0.0
02/12:00am 27.0 22.9 -0.1 17 12.9 E 11 13 6 7 1010.5 1007.7 0.0
 
Date/Time
CST
Temp
°C
App
Temp
°C
Dew
Point
°C
Rel
Hum
%
Delta-T
°C
Wind Press
QNH
hPa
Press
MSL
hPa
Rain since
9am
mm
Dir  Spd
km/h
Gust
km/h
Spd
kts
Gust
kts
01/11:30pm 27.8 23.4 0.5 17 13.2 ENE 13 15 7 8 1010.7 1007.9 0.0
01/11:00pm 26.5 22.6 1.0 19 12.3 E 11 13 6 7 1010.8 1008.0 0.0
01/10:30pm 27.0 23.7 -0.1 17 12.9 E 7 11 4 6 1010.7 1007.9 0.0
01/10:00pm 29.3 25.0 -1.9 13 14.6 ENE 11 15 6 8 1010.3 1007.5 0.0
01/09:30pm 30.7 26.0 -1.9 12 15.4 ENE 13 15 7 8 1010.1 1007.3 0.0
01/09:00pm 31.8 27.0 -2.3 11 16.1 ENE 13 15 7 8 1009.7 1007.0 0.0
01/08:30pm 32.9 28.1 -2.7 10 16.9 ENE 13 17 7 9 1009.2 1006.5 0.0
01/08:00pm 33.4 29.0 -2.3 10 17.1 ENE 11 15 6 8 1008.8 1006.0 0.0
01/07:30pm 35.5 30.6 -3.8 8 18.6 ENE 13 17 7 9 1008.4 1005.6 0.0
01/07:00pm 37.7 32.0 -3.9 7 20.0 E 17 22 9 12 1007.9 1005.1 0.0
01/06:30pm 39.4 34.0 -4.8 6 21.2 ESE 15 22 8 12 1007.6 1004.8 0.0
01/06:00pm 40.1 34.9 -6.7 5 21.9 E 13 24 7 13 1007.3 1004.5 0.0
01/05:30pm 40.5 34.5 -6.4 5 22.1 E 17 28 9 15 1007.1 1004.3 0.0
01/05:00pm 41.1 36.7 -6.0 5 22.4 SE 9 20 5 11 1006.9 1004.1 0.0
01/04:30pm 41.9 36.4 -5.4 5 22.9 SE 15 46 8 25 1006.9 1004.1 0.0
01/04:00pm 41.7 35.8 -5.6 5 22.7 ENE 17 28 9 15 1007.1 1004.3 0.0
01/03:30pm 41.0 36.1 -3.6 6 22.0 SE 13 26 7 14 1007.2 1004.4 0.0
01/03:00pm 41.1 35.8 -3.6 6 22.1 ENE 15 26 8 14 1007.5 1004.7 0.0
01/02:30pm 41.4 35.4 -3.4 6 22.2 ESE 19 28 10 15 1007.8 1005.0 0.0
01/02:00pm 41.1 35.5 -6.0 5 22.4 ESE 15 26 8 14 1008.2 1005.4 0.0
01/01:30pm 41.5 36.6 -3.3 6 22.3 SE 13 26 7 14 1008.6 1005.8 0.0
01/01:00pm 41.3 35.3 -3.4 6 22.1 SE 19 28 10 15 1009.3 1006.6 0.0
01/12:30pm 40.7 36.5 -3.9 6 21.9 W 9 15 5 8 1009.7 1007.0 0.0
01/12:00pm 40.9 36.0 -3.7 6 21.9 ENE 13 26 7 14 1010.1 1007.3 0.0
01/11:30am 40.2 34.1 -4.2 6 21.6 E 19 32 10 17 1010.5 1007.7 0.0
01/11:00am 39.2 33.2 -2.9 7 20.7 NNE 19 33 10 18 1010.7 1007.9 0.0
01/10:30am 38.9 32.6 -1.3 8 20.2 ENE 22 33 12 18 1011.0 1008.2 0.0
01/10:00am 38.9 33.1 -1.3 8 20.2 NE 19 33 10 18 1011.1 1008.3 0.0
01/09:30am 38.1 32.2 -1.9 8 19.9 NE 19 28 10 15 1011.3 1008.5 0.0
01/09:00am 36.7 31.5 0.1 10 18.6 NNE 17 28 9 15 1011.4 1008.8 0.0
01/08:30am 34.3 30.3 0.8 12 17.0 NE 11 15 6 8 1011.5 1008.9 0.0
01/08:00am 31.5 27.2 0.8 14 15.3 NNE 13 20 7 11 1011.2 1008.6 0.0
01/07:30am 27.2 24.8 4.3 23 11.8 NNE 6 9 3 5 1011.0 1008.4 0.0
01/07:00am 22.7 21.5 4.7 31 9.0 CALM 0 0 0 0 1010.6 1008.0 0.0
01/06:30am 19.2 19.1 9.4 53 5.3 CALM 0 0 0 0 1010.1 1007.5 0.0
01/06:00am 18.0 17.6 8.3 53 5.1 CALM 0 0 0 0 1009.5 1006.9 0.0
01/05:30am 18.6 17.9 8.6 52 5.3 E 2 4 1 2 1009.2 1006.6 0.0
01/05:00am 19.2 17.4 7.0 45 6.3 E 6 6 3 3 1008.9 1006.3 0.0
01/04:30am 19.2 17.4 7.3 46 6.2 N 6 7 3 4 1008.6 1006.0 0.0
01/04:00am 20.3 17.8 4.8 36 7.7 NNE 7 9 4 5 1008.4 1005.8 0.0
01/03:30am 20.0 17.9 6.7 42 6.8 NNW 7 9 4 5 1008.3 1005.7 0.0
01/03:00am 20.1 17.5 6.1 40 7.1 N 9 11 5 6 1008.2 1005.6 0.0
01/02:30am 20.2 18.0 6.2 40 7.1 NNW 7 9 4 5 1008.3 1005.7 0.0
01/02:00am 20.5 17.5 6.1 39 7.3 WNW 11 11 6 6 1008.5 1005.9 0.0
01/01:30am 21.8 19.8 4.4 32 8.7 NNW 4 7 2 4 1008.7 1006.1 0.0
01/01:00am 22.3 19.6 3.9 30 9.1 NW 7 11 4 6 1009.0 1006.4 0.0
01/12:30am 23.4 19.6 3.9 28 9.7 NNW 13 15 7 8 1009.3 1006.7 0.0
01/12:00am 23.6 22.1 5.0 30 9.5 NE 2 7 1 4 1009.2 1006.6 0.0
 
Date/Time
CST
Temp
°C
App
Temp
°C
Dew
Point
°C
Rel
Hum
%
Delta-T
°C
Wind Press
QNH
hPa
Press
MSL
hPa
Rain since
9am
mm
Dir  Spd
km/h
Gust
km/h
Spd
kts
Gust
kts
30/11:30pm 24.9 23.5 3.5 25 10.7 CALM 0 0 0 0 1009.3 1006.7 0.0
30/11:00pm 27.6 24.3 2.6 20 12.5 NE 9 11 5 6 1009.4 1006.8 0.0
30/10:30pm 29.6 25.3 1.1 16 14.1 ENE 13 19 7 10 1009.3 1006.7 0.0
30/10:00pm 30.7 26.3 0.2 14 14.9 ENE 13 17 7 9 1009.2 1006.6 0.0
30/09:30pm 31.8 26.7 1.0 14 15.4 E 17 26 9 14 1009.0 1006.4 0.0
30/09:00pm 29.5 25.2 3.5 19 13.4 SE 15 20 8 11 1008.7 1006.1 0.0
30/08:30pm 31.2 26.7 -0.5 13 15.4 S 13 15 7 8 1008.5 1005.9 0.0
30/08:00pm 32.5 28.4 -0.5 12 16.1 S 11 13 6 7 1008.2 1005.6 0.0
30/07:30pm 34.5 29.8 -1.5 10 17.6 SSW 13 15 7 8 1007.8 1005.2 0.0
30/07:00pm 36.7 32.6 -2.9 8 19.2 S 9 13 5 7 1007.4 1004.8 0.0
30/06:30pm 38.5 34.0 -3.4 7 20.4 SSE 11 17 6 9 1007.2 1004.5 0.0
30/06:00pm 39.2 33.8 -4.9 6 21.1 SSE 15 20 8 11 1006.8 1004.1 0.0
30/05:30pm 39.5 34.1 -4.7 6 21.3 SSE 15 28 8 15 1006.4 1003.8 0.0

Other formats

Comma delimited format used in spreadsheet applications
http://www.bom.gov.au/fwo/IDD60801/IDD60801.95322.axf

JavaScript Object Notation format (JSON) in row-major order
http://www.bom.gov.au/fwo/IDD60801/IDD60801.95322.json

Data quality

Most of these data are generated automatically and are frequently updated. Quality checks on data are not normally performed. It is possible for incorrect values to appear. Refer to information at About Latest Weather Observations and please check the disclaimer before using these data.